Ibis — WDG7938 — position and weather

sailwx.info

Track history (hours):
 
Tides and Currents Weather Stations Pressure Air Temp Water Temp Dewpoint Dewpoint Depression Visibility Wind Speed Wind Dir Waves Ship Positions

Ibis

Owner: Cady, Ralph E, Silver Spring, MD. More information available from US FCC via Universal Licensing System and Coast Guard Vessel Documentation Center.

Last reported at 2017-Sep-11 17:19 UTC. Time now 2017-Sep-25 11:49 UTC.
Position N 41°12' W 072°37'.
Warning: this ship's position is 13 days out of date.

Length 12 m.

Type: Sailing vessel. MMSI: 366706330.

Date/timePositionNaut miles runAvg speedWind from/ knotsBaromVisibWave heightAir tempDewpointWater temp
2017-Sep-11 17:19N 41°12' W 072°37'1 4.1
2017-Sep-11 17:00N 41°13' W 072°36'3 5.1
2017-Sep-11 16:30N 41°14' W 072°33'4 7.6
2017-Sep-11 16:01N 41°14' W 072°28'4 7.9
2017-Sep-11 15:30N 41°15' W 072°22'2 0.1
2017-Sep-10 18:15N 41°16' W 072°20'3 4.1
2017-Sep-10 17:30N 41°15' W 072°17'4 0.2
2017-Sep-09 17:29N 41°14' W 072°23'3 5.6
2017-Sep-09 17:00N 41°13' W 072°26'2 4.1
2017-Sep-09 16:27N 41°12' W 072°29'2 4.1
2017-Sep-09 15:52N 41°12' W 072°32'1 3.7
2017-Sep-09 15:30N 41°12' W 072°34'  
Track history (hours):
 
Tides and Currents Weather Stations Pressure Air Temp Water Temp Dewpoint Dewpoint Depression Visibility Wind Speed Wind Dir Waves Ship Positions

Ibis

Owner: Cady, Ralph E, Silver Spring, MD. More information available from US FCC via Universal Licensing System and Coast Guard Vessel Documentation Center.

Last reported at 2017-Sep-11 17:19 UTC. Time now 2017-Sep-25 11:49 UTC.
Position N 41°12' W 072°37'.
Warning: this ship's position is 13 days out of date.

Length 12 m.

Type: Sailing vessel. MMSI: 366706330.

Date/timePositionNaut miles runAvg speedWind from/ knotsBaromVisibWave heightAir tempDewpointWater temp
2017-Sep-11 17:19N 41°12' W 072°37'1 4.1
2017-Sep-11 17:00N 41°13' W 072°36'3 5.1
2017-Sep-11 16:30N 41°14' W 072°33'4 7.6
2017-Sep-11 16:01N 41°14' W 072°28'4 7.9
2017-Sep-11 15:30N 41°15' W 072°22'2 0.1
2017-Sep-10 18:15N 41°16' W 072°20'3 4.1
2017-Sep-10 17:30N 41°15' W 072°17'4 0.2
2017-Sep-09 17:29N 41°14' W 072°23'3 5.6
2017-Sep-09 17:00N 41°13' W 072°26'2 4.1
2017-Sep-09 16:27N 41°12' W 072°29'2 4.1
2017-Sep-09 15:52N 41°12' W 072°32'1 3.7
2017-Sep-09 15:30N 41°12' W 072°34'  

Dump ship's entire track history